Time;durP1;ratioP1;P1;durP2;ratioP2;P2;SDS_P1;SDS_P2;PMS_P1;PMS_P2;Temp;Humidity;BMP_temperature;BMP_pressure;BME280_temperature;BME280_humidity;BME280_pressure;Samples;Min_cycle;Max_cycle;Signal;HPM_P1;HPM_P2
2022/08/14 00:01:21;;;;;;;2.57;2.57;;;17.50;99.90;;;;;;5051508;28;20196;-54
2022/08/14 00:03:50;;;;;;;3.13;3.03;;;17.40;99.90;;;;;;5050411;28;20649;-54
2022/08/14 00:06:17;;;;;;;2.77;2.67;;;17.30;99.90;;;;;;5038692;28;20221;-54
2022/08/14 00:08:44;;;;;;;3.10;2.90;;;17.30;99.90;;;;;;5046076;28;20659;-54
2022/08/14 00:11:11;;;;;;;3.40;3.27;;;17.20;99.90;;;;;;5050154;28;20249;-54
2022/08/14 00:13:38;;;;;;;2.97;2.87;;;17.20;99.90;;;;;;5050280;28;20267;-54
2022/08/14 00:16:05;;;;;;;3.93;3.73;;;17.10;99.90;;;;;;5050509;28;20225;-54
2022/08/14 00:18:32;;;;;;;3.77;3.67;;;17.10;99.90;;;;;;5049908;28;20202;-54
2022/08/14 00:21:01;;;;;;;4.97;3.67;;;17.10;99.90;;;;;;5051312;28;20201;-54
2022/08/14 00:23:28;;;;;;;3.67;3.57;;;17.10;99.90;;;;;;5048663;28;20202;-54
2022/08/14 00:25:56;;;;;;;4.17;4.00;;;17.10;99.90;;;;;;5048907;28;20225;-54
2022/08/14 00:28:26;;;;;;;4.10;3.90;;;17.00;99.90;;;;;;5042306;28;20194;-54
2022/08/14 00:30:56;;;;;;;3.57;3.47;;;17.00;99.90;;;;;;5051229;28;20277;-54
2022/08/14 00:33:23;;;;;;;3.20;3.10;;;16.90;99.90;;;;;;5050072;28;20263;-54
2022/08/14 00:35:51;;;;;;;3.30;3.20;;;16.90;99.90;;;;;;5051314;28;20213;-54
2022/08/14 00:38:20;;;;;;;3.33;3.23;;;16.90;99.90;;;;;;5047996;28;20208;-54
2022/08/14 00:40:48;;;;;;;3.90;3.70;;;16.90;99.90;;;;;;5047724;28;20202;-54
2022/08/14 00:43:15;;;;;;;4.07;3.87;;;16.90;99.90;;;;;;5046798;28;20198;-54
2022/08/14 00:45:42;;;;;;;4.30;4.07;;;16.90;99.90;;;;;;5049707;28;20356;-54
2022/08/14 00:48:10;;;;;;;4.23;3.87;;;16.90;99.90;;;;;;5047086;28;20210;-54
2022/08/14 00:50:37;;;;;;;3.60;3.40;;;17.00;99.90;;;;;;5046864;28;20288;-54
2022/08/14 00:53:05;;;;;;;4.50;4.20;;;17.10;99.90;;;;;;5047176;28;20271;-54
2022/08/14 00:55:36;;;;;;;4.83;4.53;;;17.10;99.90;;;;;;5044747;28;20214;-54
2022/08/14 01:00:49;;;;;;;4.00;3.80;;;17.00;99.90;;;;;;5046497;28;20693;-54
2022/08/14 01:03:18;;;;;;;4.47;4.23;;;16.90;99.90;;;;;;5045744;28;20201;-54
2022/08/14 01:05:48;;;;;;;4.50;4.30;;;16.90;99.90;;;;;;5041600;28;20691;-54
2022/08/14 01:08:18;;;;;;;4.43;4.07;;;16.80;99.90;;;;;;5044790;28;20232;-54
2022/08/14 01:10:51;;;;;;;3.87;3.67;;;16.80;99.90;;;;;;5048617;28;20206;-54
2022/08/14 01:13:20;;;;;;;4.93;4.40;;;16.60;99.90;;;;;;5044823;28;20316;-54
2022/08/14 01:15:50;;;;;;;4.23;4.03;;;16.50;99.90;;;;;;5046618;28;20220;-54
2022/08/14 01:21:05;;;;;;;5.23;4.17;;;16.50;99.90;;;;;;5041596;28;20196;-54
2022/08/14 01:23:35;;;;;;;4.00;3.80;;;16.50;99.90;;;;;;5045758;28;20228;-54
2022/08/14 01:26:03;;;;;;;3.83;3.73;;;16.40;99.90;;;;;;5042469;28;20221;-54
2022/08/14 01:28:36;;;;;;;3.97;3.83;;;16.40;99.90;;;;;;5046758;28;20609;-54
2022/08/14 01:31:05;;;;;;;4.70;4.30;;;16.30;99.90;;;;;;5045581;28;20259;-54
2022/08/14 01:33:32;;;;;;;4.53;4.33;;;16.30;99.90;;;;;;5048327;28;20225;-54
2022/08/14 01:36:00;;;;;;;5.13;3.90;;;16.30;99.90;;;;;;5046806;28;20637;-54
2022/08/14 01:38:33;;;;;;;3.60;3.50;;;16.30;99.90;;;;;;5047026;28;20233;-54
2022/08/14 01:41:01;;;;;;;3.60;3.40;;;16.20;99.90;;;;;;5054433;28;20193;-54
2022/08/14 01:43:29;;;;;;;3.47;3.13;;;16.20;99.90;;;;;;5053586;28;20210;-54
2022/08/14 01:45:59;;;;;;;3.10;3.00;;;16.20;99.90;;;;;;5051477;28;20236;-54
2022/08/14 01:48:31;;;;;;;3.13;3.03;;;16.20;99.90;;;;;;5050670;28;20621;-54
2022/08/14 01:51:01;;;;;;;4.27;4.00;;;16.20;99.90;;;;;;5045069;28;20627;-54
2022/08/14 01:53:30;;;;;;;3.60;3.37;;;16.30;99.90;;;;;;5050186;28;20206;-54
2022/08/14 01:55:59;;;;;;;4.47;4.17;;;16.30;99.90;;;;;;5049132;28;20213;-54
2022/08/14 01:58:28;;;;;;;4.87;4.57;;;16.30;99.90;;;;;;5046755;28;20713;-54
2022/08/14 02:00:57;;;;;;;3.50;3.40;;;16.20;99.90;;;;;;5054199;28;20280;-54
2022/08/14 02:03:25;;;;;;;4.30;4.00;;;16.20;99.90;;;;;;5051983;28;20198;-54
2022/08/14 02:05:55;;;;;;;4.43;4.23;;;16.10;99.90;;;;;;5045688;28;20223;-54
2022/08/14 02:08:22;;;;;;;3.20;2.97;;;16.10;99.90;;;;;;5035631;28;20778;-54
2022/08/14 02:11:15;;;;;;;3.87;3.70;;;16.00;99.90;;;;;;5049818;28;20208;-54
2022/08/14 02:13:38;;;;;;;5.87;3.80;;;15.90;99.90;;;;;;5053108;28;20202;-54
2022/08/14 02:16:05;;;;;;;3.13;3.03;;;15.80;99.90;;;;;;5049851;28;20969;-54
2022/08/14 02:18:32;;;;;;;3.93;3.63;;;15.80;99.90;;;;;;5052965;28;20197;-54
2022/08/14 02:21:00;;;;;;;3.97;3.77;;;15.80;99.90;;;;;;5048205;28;20327;-54
2022/08/14 02:23:27;;;;;;;4.67;3.80;;;15.80;99.90;;;;;;5049536;28;20243;-54
2022/08/14 02:25:54;;;;;;;3.63;3.33;;;15.90;99.90;;;;;;5051940;28;20237;-54
2022/08/14 02:28:21;;;;;;;3.07;2.97;;;15.90;99.90;;;;;;5040531;28;20205;-53
2022/08/14 02:30:49;;;;;;;4.10;3.70;;;15.90;99.90;;;;;;5049331;28;20206;-54
2022/08/14 02:33:17;;;;;;;3.83;3.70;;;15.90;99.90;;;;;;5052649;28;20681;-54
2022/08/14 02:35:44;;;;;;;4.47;4.10;;;15.90;99.90;;;;;;5052296;28;20721;-54
2022/08/14 02:38:11;;;;;;;4.83;4.37;;;15.90;99.90;;;;;;5050862;28;20618;-54
2022/08/14 02:40:38;;;;;;;4.50;4.20;;;15.90;99.90;;;;;;5048440;28;20260;-54
2022/08/14 02:43:05;;;;;;;4.97;4.57;;;15.90;99.90;;;;;;5053115;28;20551;-54
2022/08/14 02:45:33;;;;;;;4.60;4.27;;;15.90;99.90;;;;;;5045342;28;20310;-54
2022/08/14 02:48:05;;;;;;;4.47;4.27;;;15.90;99.90;;;;;;5051004;28;20289;-55
2022/08/14 02:50:32;;;;;;;4.77;4.53;;;15.90;99.90;;;;;;5046029;28;20246;-54
2022/08/14 02:53:00;;;;;;;3.93;3.83;;;15.90;99.90;;;;;;5052239;28;20237;-54
2022/08/14 02:55:30;;;;;;;4.97;4.50;;;15.90;99.90;;;;;;5052849;28;20725;-54
2022/08/14 02:58:00;;;;;;;4.63;4.30;;;15.80;99.90;;;;;;5045265;28;20205;-54
2022/08/14 03:00:28;;;;;;;4.47;4.20;;;15.80;99.90;;;;;;5051743;28;20198;-54
2022/08/14 03:02:55;;;;;;;4.27;4.03;;;15.80;99.90;;;;;;5052763;28;20664;-54
2022/08/14 03:05:23;;;;;;;3.67;3.40;;;15.80;99.90;;;;;;5051275;28;20249;-55
2022/08/14 03:07:52;;;;;;;4.87;4.57;;;15.70;99.90;;;;;;5047382;28;20280;-54
2022/08/14 03:10:19;;;;;;;4.83;4.40;;;15.70;99.90;;;;;;5046799;28;20193;-54
2022/08/14 03:12:46;;;;;;;3.93;3.73;;;15.80;99.90;;;;;;5035129;28;20569;-54
2022/08/14 03:15:13;;;;;;;3.87;3.77;;;15.80;99.90;;;;;;5042179;28;20210;-54
2022/08/14 03:17:41;;;;;;;4.53;4.33;;;15.80;99.90;;;;;;5042214;28;20204;-54
2022/08/14 03:20:10;;;;;;;3.80;3.53;;;15.70;99.90;;;;;;5038416;28;20267;-54
2022/08/14 03:22:39;;;;;;;4.83;4.43;;;15.70;99.90;;;;;;5040278;28;20206;-54
2022/08/14 03:25:08;;;;;;;3.30;3.10;;;15.60;99.90;;;;;;5042523;28;20309;-54
2022/08/14 03:27:35;;;;;;;3.93;3.43;;;15.50;99.90;;;;;;5036405;28;20683;-54
2022/08/14 03:30:03;;;;;;;3.10;3.00;;;15.50;99.90;;;;;;5041029;28;20233;-54
2022/08/14 03:32:32;;;;;;;2.97;2.87;;;15.40;99.90;;;;;;5041100;28;20245;-54
2022/08/14 03:34:59;;;;;;;3.80;3.70;;;15.40;99.90;;;;;;5040911;28;20265;-54
2022/08/14 03:37:26;;;;;;;3.67;3.47;;;15.40;99.90;;;;;;5038000;28;20198;-55
2022/08/14 03:39:55;;;;;;;3.27;3.17;;;15.40;99.90;;;;;;5042169;28;20251;-55
2022/08/14 03:42:24;;;;;;;2.87;2.67;;;15.30;99.90;;;;;;5032181;28;20305;-54
2022/08/14 03:44:51;;;;;;;3.30;3.20;;;15.30;99.90;;;;;;5039360;28;20201;-54
2022/08/14 03:47:18;;;;;;;3.50;3.30;;;15.20;99.90;;;;;;5035144;28;20818;-55
2022/08/14 03:49:46;;;;;;;3.27;3.17;;;15.20;99.90;;;;;;5040148;28;20209;-54
2022/08/14 03:52:14;;;;;;;3.83;3.57;;;15.20;99.90;;;;;;5042013;28;20202;-54
2022/08/14 03:54:41;;;;;;;3.33;3.23;;;15.20;99.90;;;;;;5038714;28;20206;-55
2022/08/14 03:57:09;;;;;;;3.90;3.70;;;15.30;99.90;;;;;;5035991;28;20242;-54
2022/08/14 03:59:36;;;;;;;3.83;3.40;;;15.30;99.90;;;;;;5042746;28;20258;-54
2022/08/14 04:02:03;;;;;;;4.57;4.37;;;15.30;99.90;;;;;;5039125;28;20243;-54
2022/08/14 04:04:30;;;;;;;3.93;3.83;;;15.20;99.90;;;;;;5034520;28;20198;-54
2022/08/14 04:06:59;;;;;;;4.27;4.07;;;15.20;99.90;;;;;;5046531;28;20312;-54
2022/08/14 04:09:26;;;;;;;4.03;3.73;;;15.20;99.90;;;;;;5038283;28;20298;-54
2022/08/14 04:11:54;;;;;;;3.87;3.77;;;15.10;99.90;;;;;;5037928;28;20249;-54
2022/08/14 04:14:22;;;;;;;4.17;3.97;;;15.20;99.90;;;;;;5044695;28;20205;-54
2022/08/14 04:16:49;;;;;;;4.57;4.27;;;15.20;99.90;;;;;;5043257;28;20214;-54
2022/08/14 04:19:22;;;;;;;3.87;3.77;;;15.10;99.90;;;;;;5042533;28;20233;-54
2022/08/14 04:21:50;;;;;;;4.17;3.97;;;15.10;99.90;;;;;;5042630;28;20259;-54
2022/08/14 04:24:17;;;;;;;3.67;3.40;;;15.10;99.90;;;;;;5041753;28;20296;-54
2022/08/14 04:26:44;;;;;;;3.77;3.57;;;15.10;99.90;;;;;;5049146;28;20225;-54
2022/08/14 04:29:12;;;;;;;4.50;4.13;;;15.10;99.90;;;;;;5043184;28;20232;-54
2022/08/14 04:31:42;;;;;;;4.00;3.80;;;15.10;99.90;;;;;;5043513;28;20217;-54
2022/08/14 04:34:09;;;;;;;4.77;4.47;;;15.10;99.90;;;;;;5044594;28;20406;-54
2022/08/14 04:43:34;;;;;;;3.03;2.93;;;15.20;99.90;;;;;;5046369;28;20249;-54
2022/08/14 04:45:04;;;;;;;3.70;3.50;;;15.40;99.90;;;;;;5023381;28;20194;-54
2022/08/14 04:50:17;;;;;;;5.10;4.70;;;15.60;99.90;;;;;;5049040;28;20336;-54
2022/08/14 04:52:43;;;;;;;5.10;4.90;;;15.80;99.90;;;;;;5044003;28;21136;-54
2022/08/14 04:55:10;;;;;;;5.00;4.53;;;16.30;99.90;;;;;;5043676;28;20221;-55
2022/08/14 04:57:38;;;;;;;4.87;4.60;;;16.70;99.90;;;;;;5050078;28;20296;-54
2022/08/14 05:00:08;;;;;;;4.90;4.60;;;16.90;99.90;;;;;;5041815;28;20259;-54
2022/08/14 05:02:36;;;;;;;5.13;4.83;;;17.10;99.90;;;;;;5047730;28;20206;-54
2022/08/14 05:05:03;;;;;;;6.53;5.17;;;16.90;99.90;;;;;;5041606;28;20606;-54
2022/08/14 05:07:30;;;;;;;4.00;3.80;;;16.90;99.90;;;;;;5045957;28;20583;-54
2022/08/14 05:09:58;;;;;;;3.83;3.73;;;16.90;99.90;;;;;;5035754;28;20305;-54
2022/08/14 05:12:25;;;;;;;5.07;4.87;;;16.90;99.90;;;;;;5035246;28;20209;-54
2022/08/14 05:14:52;;;;;;;3.27;3.03;;;16.80;99.90;;;;;;5045345;28;20550;-54
2022/08/14 05:17:20;;;;;;;3.77;3.53;;;16.80;99.90;;;;;;5041614;28;20277;-54
2022/08/14 05:19:48;;;;;;;3.60;3.40;;;17.00;99.90;;;;;;5043400;28;20571;-54
2022/08/14 05:22:15;;;;;;;3.70;3.60;;;17.20;99.90;;;;;;5042827;28;20195;-54
2022/08/14 05:24:42;;;;;;;4.07;3.77;;;17.60;99.90;;;;;;5045201;28;20276;-55
2022/08/14 05:27:09;;;;;;;3.30;3.10;;;17.80;99.90;;;;;;5045597;28;20225;-54
2022/08/14 05:29:36;;;;;;;3.60;3.50;;;17.70;99.90;;;;;;5040096;28;20306;-54
2022/08/14 05:32:06;;;;;;;3.67;3.57;;;17.70;99.90;;;;;;5038763;28;20198;-54
2022/08/14 05:34:33;;;;;;;3.27;3.17;;;17.70;99.90;;;;;;5043103;28;20633;-54
2022/08/14 05:37:01;;;;;;;2.90;2.80;;;17.70;99.90;;;;;;5039720;28;20210;-55
2022/08/14 05:39:29;;;;;;;4.53;4.23;;;17.80;99.90;;;;;;5037556;28;20681;-54
2022/08/14 05:41:56;;;;;;;3.37;3.10;;;18.00;99.90;;;;;;5043617;28;20198;-54
2022/08/14 05:44:23;;;;;;;3.07;2.90;;;18.30;99.90;;;;;;5035127;28;20198;-54
2022/08/14 05:46:50;;;;;;;3.00;2.90;;;18.60;99.90;;;;;;5039157;28;20658;-54
2022/08/14 05:49:17;;;;;;;2.87;2.77;;;19.10;99.90;;;;;;5041061;28;20194;-55
2022/08/14 05:51:45;;;;;;;2.87;2.77;;;19.50;99.90;;;;;;5038467;28;20230;-54
2022/08/14 05:54:14;;;;;;;2.80;2.80;;;19.90;99.90;;;;;;5034129;28;20206;-54
2022/08/14 05:56:41;;;;;;;3.10;2.90;;;20.40;99.90;;;;;;5042244;28;20629;-54
2022/08/14 05:59:08;;;;;;;3.03;2.83;;;21.10;99.90;;;;;;5045598;28;20741;-54
2022/08/14 06:01:35;;;;;;;2.93;2.83;;;21.80;99.90;;;;;;5039700;28;20206;-54
2022/08/14 06:04:02;;;;;;;3.17;2.63;;;22.60;99.90;;;;;;5040887;28;20630;-54
2022/08/14 06:06:29;;;;;;;3.00;2.90;;;23.50;99.90;;;;;;5041070;28;20264;-55
2022/08/14 06:08:56;;;;;;;2.50;2.47;;;24.60;99.90;;;;;;5042506;28;20684;-54
2022/08/14 06:11:25;;;;;;;4.17;2.50;;;25.60;99.90;;;;;;5045470;28;20205;-54
2022/08/14 06:13:53;;;;;;;3.90;2.50;;;26.20;99.90;;;;;;5041090;28;20597;-54
2022/08/14 06:16:20;;;;;;;3.40;3.30;;;27.10;99.90;;;;;;5041979;28;20220;-54
2022/08/14 06:18:48;;;;;;;2.50;2.50;;;27.70;99.80;;;;;;5041930;28;20206;-54
2022/08/14 06:21:15;;;;;;;3.20;2.47;;;27.90;98.90;;;;;;5034891;28;20195;-54
2022/08/14 06:23:42;;;;;;;4.70;2.57;;;28.50;97.30;;;;;;5032871;28;20758;-54
2022/08/14 06:26:10;;;;;;;3.00;2.73;;;28.40;97.30;;;;;;5035553;28;20576;-54
2022/08/14 06:28:39;;;;;;;2.45;2.35;;;28.90;96.80;;;;;;5036320;28;20259;-54
2022/08/14 06:31:06;;;;;;;2.65;2.47;;;29.30;95.30;;;;;;5042229;28;20259;-54
2022/08/14 06:33:33;;;;;;;5.80;3.08;;;29.10;95.20;;;;;;5036954;28;20256;-54
2022/08/14 06:36:00;;;;;;;2.60;2.50;;;28.90;95.20;;;;;;5048719;28;20318;-54
2022/08/14 06:38:27;;;;;;;3.00;2.75;;;28.80;96.60;;;;;;5035242;28;20254;-55
2022/08/14 06:40:54;;;;;;;2.65;2.55;;;29.20;95.10;;;;;;5037784;28;20221;-54
2022/08/14 06:43:22;;;;;;;2.42;2.33;;;29.80;94.20;;;;;;5048418;28;20300;-54
2022/08/14 06:45:50;;;;;;;1.88;1.88;;;30.40;93.20;;;;;;5047025;28;20226;-54
2022/08/14 06:48:20;;;;;;;2.42;2.15;;;30.40;93.00;;;;;;5040611;28;20664;-55
2022/08/14 06:50:48;;;;;;;5.22;2.05;;;30.90;92.60;;;;;;5041222;28;20206;-54
2022/08/14 06:53:16;;;;;;;4.28;2.78;;;31.50;91.60;;;;;;5046383;28;20657;-54
2022/08/14 06:55:44;;;;;;;2.22;2.13;;;31.80;90.70;;;;;;5051463;28;20317;-54
2022/08/14 06:58:13;;;;;;;2.35;2.33;;;32.20;90.40;;;;;;5048272;28;20234;-54
2022/08/14 07:05:44;;;;;;;2.67;2.58;;;32.30;89.70;;;;;;5041658;22;20223;-53
2022/08/14 07:06:13;;;;;;;2.45;2.15;;;32.00;89.30;;;;;;5012632;28;20242;-53
2022/08/14 07:08:42;;;;;;;6.78;5.60;;;31.50;90.60;;;;;;5010862;28;20723;-53
2022/08/14 07:11:09;;;;;;;8.63;6.88;;;30.80;90.40;;;;;;5012696;28;20218;-53
2022/08/14 07:13:36;;;;;;;10.60;8.95;;;30.30;89.70;;;;;;5014981;28;20289;-53
2022/08/14 07:16:04;;;;;;;11.07;9.15;;;29.80;90.20;;;;;;5004582;28;20203;-53
2022/08/14 07:18:35;;;;;;;5.75;5.15;;;29.80;90.00;;;;;;5009932;28;20751;-52
2022/08/14 07:21:04;;;;;;;4.72;4.32;;;29.80;90.60;;;;;;5021348;28;20644;-53
2022/08/14 07:23:31;;;;;;;3.70;3.50;;;29.90;90.70;;;;;;5014711;28;20195;-53
2022/08/14 07:26:00;;;;;;;2.95;2.78;;;30.00;92.10;;;;;;5009982;28;20199;-53
2022/08/14 07:28:30;;;;;;;2.10;2.10;;;30.00;90.70;;;;;;5008980;28;20287;-53
2022/08/14 07:30:58;;;;;;;1.73;1.73;;;30.20;88.60;;;;;;5010765;28;20215;-53
2022/08/14 07:33:26;;;;;;;2.30;2.30;;;30.50;86.70;;;;;;5009784;28;20203;-53
2022/08/14 07:35:57;;;;;;;1.77;1.70;;;31.00;90.30;;;;;;5014835;28;20203;-53
2022/08/14 07:38:25;;;;;;;1.90;1.80;;;31.40;86.00;;;;;;5024709;28;20657;-53
2022/08/14 07:40:53;;;;;;;1.70;1.70;;;31.90;85.00;;;;;;5007479;28;20219;-53
2022/08/14 07:43:20;;;;;;;2.13;1.95;;;32.20;84.20;;;;;;5000044;28;20203;-53
2022/08/14 07:45:47;;;;;;;1.70;1.70;;;31.30;82.90;;;;;;5002779;28;20195;-52
2022/08/14 07:48:14;;;;;;;1.98;1.88;;;31.20;86.30;;;;;;5008462;28;20628;-53
2022/08/14 07:50:42;;;;;;;2.53;1.88;;;31.50;85.80;;;;;;4995274;28;20289;-53
2022/08/14 07:53:12;;;;;;;1.70;1.63;;;31.80;84.60;;;;;;5005098;28;20719;-53
2022/08/14 07:55:41;;;;;;;2.00;1.90;;;32.20;83.60;;;;;;5008628;28;20210;-53
2022/08/14 07:58:08;;;;;;;2.25;2.15;;;32.10;81.60;;;;;;5014660;28;20206;-53
2022/08/14 08:00:35;;;;;;;1.67;1.67;;;31.90;82.80;;;;;;5012534;28;20589;-53
2022/08/14 08:03:02;;;;;;;2.50;2.35;;;31.90;87.20;;;;;;5007875;28;20199;-53
2022/08/14 08:05:30;;;;;;;1.75;1.75;;;31.90;81.60;;;;;;5010200;28;20203;-53
2022/08/14 08:08:00;;;;;;;1.60;1.52;;;31.90;83.10;;;;;;5014211;28;20241;-53
2022/08/14 08:10:31;;;;;;;1.60;1.60;;;32.60;80.80;;;;;;5016475;28;20698;-53
2022/08/14 08:13:00;;;;;;;1.83;1.73;;;32.20;84.50;;;;;;5005244;28;20214;-53
2022/08/14 08:15:30;;;;;;;2.03;1.55;;;32.70;79.80;;;;;;4999725;28;20254;-53
2022/08/14 08:17:57;;;;;;;2.38;2.38;;;33.00;83.10;;;;;;4998863;28;20286;-53
2022/08/14 08:20:27;;;;;;;2.03;2.03;;;33.50;81.00;;;;;;5007459;28;20224;-53
2022/08/14 08:22:59;;;;;;;1.60;1.60;;;33.70;78.70;;;;;;5009943;28;20211;-53
2022/08/14 08:25:30;;;;;;;5.45;2.05;;;33.90;80.40;;;;;;5006675;28;20212;-53
2022/08/14 08:27:59;;;;;;;1.88;1.88;;;33.70;77.70;;;;;;5008724;28;20333;-53
2022/08/14 08:30:27;;;;;;;2.88;1.90;;;34.00;80.40;;;;;;5020680;28;20218;-53
2022/08/14 08:32:59;;;;;;;3.72;1.88;;;33.70;78.20;;;;;;5010338;28;20209;-53
2022/08/14 08:35:28;;;;;;;1.58;1.58;;;33.80;77.80;;;;;;4998967;28;20200;-53
2022/08/14 08:38:02;;;;;;;1.55;1.45;;;34.10;80.40;;;;;;5006603;28;20666;-53
2022/08/14 08:40:34;;;;;;;1.45;1.45;;;34.30;81.00;;;;;;5008389;28;20223;-53
2022/08/14 08:43:02;;;;;;;2.22;2.13;;;34.60;79.50;;;;;;4999631;28;20253;-53
2022/08/14 08:45:29;;;;;;;2.00;1.90;;;34.30;73.80;;;;;;5000421;28;20720;-53
2022/08/14 08:47:57;;;;;;;1.90;1.80;;;32.80;75.70;;;;;;5008150;28;20222;-53
2022/08/14 08:50:29;;;;;;;1.52;1.52;;;32.30;79.40;;;;;;5009750;28;20246;-53
2022/08/14 08:53:00;;;;;;;1.90;1.80;;;32.30;78.40;;;;;;5003917;28;20226;-53
2022/08/14 08:55:31;;;;;;;1.90;1.80;;;32.10;79.70;;;;;;4992347;28;20290;-53
2022/08/14 08:58:03;;;;;;;3.15;2.00;;;32.40;81.10;;;;;;4993455;28;20199;-53
2022/08/14 09:00:32;;;;;;;1.45;1.40;;;32.80;81.10;;;;;;4993363;28;20243;-54
2022/08/14 09:03:08;;;;;;;1.90;1.90;;;32.90;77.00;;;;;;4995680;28;20195;-53
2022/08/14 09:05:37;;;;;;;2.03;1.98;;;32.90;82.00;;;;;;5007609;28;20214;-53
2022/08/14 09:08:12;;;;;;;2.08;2.00;;;33.00;75.80;;;;;;5011350;28;20222;-53
2022/08/14 09:10:41;;;;;;;3.20;1.40;;;33.50;82.50;;;;;;5010151;28;20218;-53
2022/08/14 09:13:11;;;;;;;1.52;1.52;;;33.20;78.20;;;;;;5004705;28;20206;-54
2022/08/14 09:15:39;;;;;;;2.15;2.15;;;33.40;80.50;;;;;;5006865;28;20222;-53
2022/08/14 09:18:07;;;;;;;1.50;1.40;;;33.70;78.70;;;;;;5001978;28;20685;-53
2022/08/14 09:20:35;;;;;;;1.42;1.38;;;33.70;79.00;;;;;;4993720;28;20234;-53
2022/08/14 09:23:04;;;;;;;1.95;1.42;;;33.30;74.90;;;;;;5001013;28;20945;-53
2022/08/14 09:25:31;;;;;;;1.90;1.80;;;33.30;73.00;;;;;;4996417;28;20235;-54
2022/08/14 09:28:02;;;;;;;2.00;1.90;;;32.50;78.30;;;;;;5010593;28;20398;-53
2022/08/14 09:30:31;;;;;;;2.30;2.30;;;32.50;79.50;;;;;;5001667;28;20574;-54
2022/08/14 09:33:14;;;;;;;2.33;2.22;;;33.00;78.70;;;;;;5009862;28;20204;-53
2022/08/14 09:35:53;;;;;;;2.85;2.28;;;33.20;76.70;;;;;;4994380;28;20207;-53
2022/08/14 09:38:28;;;;;;;1.83;1.83;;;33.70;75.50;;;;;;4993973;28;20199;-54
2022/08/14 09:41:05;;;;;;;1.95;1.95;;;33.80;75.40;;;;;;4991918;28;20281;-53
2022/08/14 09:43:46;;;;;;;2.53;2.33;;;33.60;74.40;;;;;;4991082;28;20200;-54
2022/08/14 09:46:15;;;;;;;2.35;2.35;;;33.40;81.80;;;;;;5002706;28;20219;-54
2022/08/14 09:48:42;;;;;;;2.38;2.20;;;32.80;86.50;;;;;;5001653;28;20219;-54
2022/08/14 09:51:23;;;;;;;2.95;2.85;;;33.10;83.40;;;;;;4992503;28;20216;-53
2022/08/14 09:54:05;;;;;;;3.50;3.30;;;33.30;83.60;;;;;;4991563;28;20202;-53
2022/08/14 09:56:45;;;;;;;2.83;2.70;;;31.90;87.20;;;;;;4999629;28;20202;-53
2022/08/14 09:59:16;;;;;;;2.97;2.85;;;31.80;89.30;;;;;;5000075;28;20727;-53
2022/08/14 10:01:44;;;;;;;2.80;2.70;;;31.60;90.20;;;;;;5008484;28;20207;-53
2022/08/14 10:04:20;;;;;;;2.90;2.90;;;32.00;89.80;;;;;;5009307;28;20196;-53
2022/08/14 10:06:47;;;;;;;2.72;2.53;;;32.10;89.30;;;;;;5008211;28;20237;-53
2022/08/14 10:09:14;;;;;;;2.47;2.42;;;32.20;91.00;;;;;;4996855;28;20215;-53
2022/08/14 10:11:42;;;;;;;2.90;2.80;;;31.90;87.50;;;;;;5007655;28;20223;-53
2022/08/14 10:14:16;;;;;;;2.60;2.60;;;32.20;89.70;;;;;;5009637;28;20198;-53
2022/08/14 10:16:45;;;;;;;2.97;2.78;;;31.70;90.30;;;;;;5005829;28;20282;-53
2022/08/14 10:19:14;;;;;;;2.90;2.80;;;32.20;90.80;;;;;;5005455;28;20248;-53
2022/08/14 10:21:47;;;;;;;2.00;2.00;;;32.10;87.80;;;;;;4994905;28;20237;-53
2022/08/14 10:24:24;;;;;;;1.90;1.90;;;32.50;89.70;;;;;;5016841;28;20225;-53
2022/08/14 10:26:55;;;;;;;2.47;2.38;;;32.70;82.30;;;;;;5006910;28;20200;-54
2022/08/14 10:29:33;;;;;;;2.55;2.55;;;33.00;82.80;;;;;;5003113;28;20712;-54
2022/08/14 10:32:00;;;;;;;2.90;2.70;;;32.80;87.70;;;;;;5007623;28;20198;-53
2022/08/14 10:34:32;;;;;;;2.45;2.08;;;33.20;89.10;;;;;;5012303;28;20308;-53
2022/08/14 10:37:06;;;;;;;2.10;2.08;;;33.70;83.50;;;;;;5006796;28;20202;-53
2022/08/14 10:39:35;;;;;;;2.08;2.00;;;33.30;79.20;;;;;;5014447;28;20223;-53
2022/08/14 10:42:05;;;;;;;2.20;2.20;;;33.90;81.60;;;;;;5014426;28;20293;-53
2022/08/14 10:44:37;;;;;;;2.40;2.28;;;33.40;83.90;;;;;;5005749;28;20199;-53
2022/08/14 10:47:09;;;;;;;2.65;2.55;;;32.90;88.30;;;;;;5010942;28;20708;-53
2022/08/14 10:49:38;;;;;;;2.17;2.08;;;32.80;87.60;;;;;;5020377;28;20319;-53
2022/08/14 10:52:07;;;;;;;2.17;2.08;;;32.90;88.60;;;;;;5016532;28;20249;-53
2022/08/14 10:54:37;;;;;;;2.38;2.17;;;33.10;87.30;;;;;;5011445;28;20264;-53
2022/08/14 10:57:19;;;;;;;1.90;1.90;;;32.90;87.30;;;;;;5004518;28;20755;-53
2022/08/14 10:59:50;;;;;;;2.83;2.58;;;32.80;87.30;;;;;;5001708;28;20302;-53
2022/08/14 11:02:27;;;;;;;2.75;2.65;;;32.10;87.60;;;;;;5005751;28;20257;-53
2022/08/14 11:05:06;;;;;;;2.85;2.53;;;31.30;89.40;;;;;;5013059;28;20204;-53
2022/08/14 11:07:34;;;;;;;2.05;2.05;;;30.70;90.70;;;;;;5011860;28;20309;-53
2022/08/14 11:10:04;;;;;;;3.17;2.97;;;30.30;91.20;;;;;;4992997;28;20215;-53
2022/08/14 11:12:45;;;;;;;2.53;2.53;;;29.60;90.00;;;;;;4993076;28;20235;-53
2022/08/14 11:15:15;;;;;;;2.60;2.40;;;29.00;90.90;;;;;;5005076;28;20196;-53
2022/08/14 11:17:45;;;;;;;1.98;1.98;;;29.10;93.60;;;;;;5001136;28;20209;-53
2022/08/14 11:20:13;;;;;;;1.90;1.90;;;29.10;91.80;;;;;;5017303;28;20815;-53
2022/08/14 11:22:41;;;;;;;1.85;1.85;;;29.00;90.20;;;;;;5012358;28;20204;-53
2022/08/14 11:25:12;;;;;;;2.58;2.38;;;29.20;91.40;;;;;;5016729;28;20252;-53
2022/08/14 11:27:42;;;;;;;1.80;1.70;;;29.10;90.30;;;;;;5011628;28;20222;-53
2022/08/14 11:30:11;;;;;;;2.17;2.17;;;29.30;89.40;;;;;;5011483;28;20318;-53
2022/08/14 11:32:41;;;;;;;2.40;1.92;;;29.50;90.30;;;;;;5016522;28;20211;-53
2022/08/14 11:35:14;;;;;;;1.73;1.63;;;29.40;87.70;;;;;;5020837;28;20199;-53
2022/08/14 11:37:50;;;;;;;2.17;2.10;;;29.00;90.20;;;;;;5017366;28;20198;-53
2022/08/14 11:40:18;;;;;;;1.73;1.60;;;28.90;90.80;;;;;;5018679;28;20704;-53
2022/08/14 11:42:47;;;;;;;1.80;1.80;;;28.70;88.50;;;;;;5019595;28;20210;-53
2022/08/14 11:45:16;;;;;;;1.80;1.70;;;28.80;90.70;;;;;;5025557;28;20194;-53
2022/08/14 11:47:44;;;;;;;3.00;2.25;;;28.60;91.10;;;;;;5021726;28;20254;-53
2022/08/14 11:50:13;;;;;;;1.83;1.83;;;28.60;91.30;;;;;;5032619;28;20850;-53
2022/08/14 11:52:40;;;;;;;2.03;1.92;;;28.70;90.00;;;;;;5027248;28;20286;-53
2022/08/14 11:55:11;;;;;;;1.77;1.77;;;28.70;90.00;;;;;;5008025;28;20253;-53
2022/08/14 11:57:38;;;;;;;1.67;1.67;;;28.70;91.20;;;;;;5006860;28;20200;-53
2022/08/14 12:00:08;;;;;;;1.95;1.95;;;28.70;90.50;;;;;;4992934;28;20290;-53
2022/08/14 12:02:36;;;;;;;1.60;1.55;;;28.60;89.90;;;;;;4993372;28;20211;-53
2022/08/14 12:05:05;;;;;;;1.92;1.83;;;28.80;91.00;;;;;;5007062;28;20290;-53
2022/08/14 12:07:32;;;;;;;1.70;1.70;;;29.00;90.40;;;;;;5015803;28;20231;-52
2022/08/14 12:09:59;;;;;;;1.90;1.77;;;29.00;85.40;;;;;;5004728;28;20220;-52
2022/08/14 12:12:31;;;;;;;1.52;1.48;;;28.90;90.70;;;;;;4991300;28;20283;-52
2022/08/14 12:14:59;;;;;;;1.67;1.58;;;28.70;89.20;;;;;;5000066;28;20210;-52
2022/08/14 12:17:28;;;;;;;2.35;1.52;;;28.50;86.10;;;;;;5000703;28;20203;-52
2022/08/14 12:19:59;;;;;;;1.85;1.85;;;28.30;89.70;;;;;;4991982;28;20223;-52
2022/08/14 12:22:35;;;;;;;2.60;2.20;;;28.20;87.80;;;;;;4995471;28;20254;-53
2022/08/14 12:25:03;;;;;;;1.30;1.30;;;28.40;86.80;;;;;;5001143;28;20195;-53
2022/08/14 12:27:41;;;;;;;1.33;1.33;;;28.50;87.10;;;;;;4996350;28;20204;-52
2022/08/14 12:30:08;;;;;;;0.95;0.95;;;28.80;88.90;;;;;;5003037;28;20791;-52
2022/08/14 12:32:40;;;;;;;1.60;1.45;;;28.90;84.20;;;;;;4996536;28;20211;-53
2022/08/14 12:35:09;;;;;;;1.45;1.45;;;28.90;84.70;;;;;;4999028;28;20710;-53
2022/08/14 12:37:38;;;;;;;1.25;1.25;;;28.90;86.40;;;;;;4996431;28;20295;-53
2022/08/14 12:40:13;;;;;;;1.63;1.60;;;28.80;86.10;;;;;;5001796;28;20292;-53
2022/08/14 12:42:41;;;;;;;1.48;1.45;;;28.70;82.10;;;;;;4996393;28;20203;-53
2022/08/14 12:45:10;;;;;;;1.55;1.55;;;28.80;84.70;;;;;;4998041;28;20198;-52
2022/08/14 12:47:37;;;;;;;1.48;1.48;;;28.80;84.00;;;;;;5004025;28;20685;-53
2022/08/14 12:50:05;;;;;;;1.88;1.63;;;28.90;85.10;;;;;;4993606;28;20224;-53
2022/08/14 12:52:34;;;;;;;1.25;1.25;;;28.90;89.70;;;;;;4993361;28;20254;-53
2022/08/14 12:55:05;;;;;;;1.13;1.13;;;29.10;87.80;;;;;;4998153;28;20818;-53
2022/08/14 12:57:38;;;;;;;2.38;1.70;;;29.00;89.90;;;;;;5009033;28;20200;-53
2022/08/14 13:00:07;;;;;;;1.20;1.20;;;28.90;84.70;;;;;;5049406;22;20229;-55
2022/08/14 13:02:38;;;;;;;1.75;1.73;;;28.90;87.60;;;;;;5052053;28;20656;-54
2022/08/14 13:05:08;;;;;;;1.95;1.80;;;28.90;87.70;;;;;;5047723;28;20224;-54
2022/08/14 13:07:36;;;;;;;1.67;1.48;;;28.90;86.00;;;;;;5050646;28;20683;-54
2022/08/14 13:10:06;;;;;;;1.25;1.25;;;28.80;83.50;;;;;;5043356;28;20309;-54
2022/08/14 13:12:33;;;;;;;2.15;1.00;;;28.90;84.70;;;;;;5052215;28;20233;-54
2022/08/14 13:15:00;;;;;;;1.52;1.42;;;29.00;84.10;;;;;;5050370;28;20285;-54